Time;durP1;ratioP1;P1;durP2;ratioP2;P2;SDS_P1;SDS_P2;PMS_P1;PMS_P2;Temp;Humidity;BMP_temperature;BMP_pressure;BME280_temperature;BME280_humidity;BME280_pressure;Samples;Min_cycle;Max_cycle;Signal;HPM_P1;HPM_P2
2023/04/26 00:01:59;;;;;;;7.25;2.10;;;4.20;99.90;;;;;;5050842;28;20033;-80
2023/04/26 00:04:27;;;;;;;4.82;1.67;;;3.90;99.90;;;;;;5051456;28;20083;-80
2023/04/26 00:06:53;;;;;;;7.47;2.03;;;4.30;99.90;;;;;;5052360;28;20417;-80
2023/04/26 00:09:19;;;;;;;4.95;2.00;;;4.20;99.90;;;;;;5051151;28;20045;-80
2023/04/26 00:11:44;;;;;;;7.50;2.00;;;4.10;99.90;;;;;;5051149;28;20087;-80
2023/04/26 00:14:10;;;;;;;4.65;2.03;;;4.10;99.90;;;;;;5055042;28;20451;-79
2023/04/26 00:16:36;;;;;;;4.38;1.77;;;4.50;99.90;;;;;;5054780;28;20041;-79
2023/04/26 00:19:02;;;;;;;5.88;2.15;;;4.10;99.90;;;;;;5055268;28;20036;-80
2023/04/26 00:21:28;;;;;;;6.00;1.90;;;4.30;99.90;;;;;;5056738;28;20412;-80
2023/04/26 00:23:53;;;;;;;5.93;1.70;;;4.50;99.90;;;;;;5056325;28;20033;-80
2023/04/26 00:26:19;;;;;;;5.10;1.95;;;4.00;99.90;;;;;;5056526;28;20068;-80
2023/04/26 00:28:45;;;;;;;3.20;1.70;;;4.00;99.90;;;;;;5056232;28;20037;-80
2023/04/26 00:31:14;;;;;;;9.68;2.10;;;4.20;99.90;;;;;;5055218;28;20124;-80
2023/04/26 00:33:40;;;;;;;6.25;2.05;;;4.30;99.90;;;;;;5055131;28;20041;-80
2023/04/26 00:36:06;;;;;;;5.47;1.85;;;3.90;99.90;;;;;;5054444;28;20047;-80
2023/04/26 00:38:31;;;;;;;3.83;2.10;;;3.80;99.90;;;;;;5055785;28;20535;-80
2023/04/26 00:40:57;;;;;;;7.22;2.20;;;3.80;99.90;;;;;;5054730;28;20044;-80
2023/04/26 00:43:22;;;;;;;6.22;1.75;;;3.70;99.90;;;;;;5056169;28;20493;-80
2023/04/26 00:45:48;;;;;;;3.92;2.08;;;3.60;99.90;;;;;;5054545;28;20053;-80
2023/04/26 00:48:14;;;;;;;6.70;2.33;;;3.80;99.90;;;;;;5054471;28;20094;-80
2023/04/26 00:50:40;;;;;;;8.68;2.50;;;3.50;99.90;;;;;;5054734;28;20095;-80
2023/04/26 00:53:07;;;;;;;6.13;1.90;;;3.90;99.90;;;;;;5055881;28;20037;-80
2023/04/26 00:55:33;;;;;;;5.78;2.42;;;3.80;99.90;;;;;;5058575;28;20051;-80
2023/04/26 00:57:59;;;;;;;6.60;2.15;;;3.40;99.90;;;;;;5064287;28;20029;-80
2023/04/26 01:00:24;;;;;;;5.70;2.20;;;3.30;99.90;;;;;;5056194;28;20125;-80
2023/04/26 01:02:50;;;;;;;5.38;2.28;;;3.20;99.90;;;;;;5054407;28;20037;-80
2023/04/26 01:05:16;;;;;;;5.10;2.05;;;3.40;99.90;;;;;;5054521;28;20048;-80
2023/04/26 01:07:42;;;;;;;12.50;2.88;;;3.20;99.90;;;;;;5054155;28;20059;-80
2023/04/26 01:10:09;;;;;;;10.68;2.42;;;3.20;99.90;;;;;;5054562;28;20040;-80
2023/04/26 01:12:35;;;;;;;6.45;2.40;;;3.10;99.90;;;;;;5054095;28;20656;-80
2023/04/26 01:15:02;;;;;;;5.35;1.90;;;3.30;99.90;;;;;;5053928;28;20041;-80
2023/04/26 01:17:28;;;;;;;8.25;2.63;;;3.10;99.90;;;;;;5053925;28;20069;-80
2023/04/26 01:19:54;;;;;;;6.40;2.33;;;3.20;99.90;;;;;;5053885;28;20041;-80
2023/04/26 01:22:20;;;;;;;6.43;2.47;;;3.10;99.90;;;;;;5054273;28;20510;-80
2023/04/26 01:24:49;;;;;;;7.03;2.00;;;3.10;99.90;;;;;;5052765;28;20041;-80
2023/04/26 01:27:15;;;;;;;6.80;2.17;;;3.10;99.90;;;;;;5055687;28;20037;-80
2023/04/26 01:29:41;;;;;;;8.20;2.13;;;3.40;99.90;;;;;;5054181;28;20037;-80
2023/04/26 01:32:07;;;;;;;8.32;2.80;;;3.20;99.90;;;;;;5053853;28;20049;-80
2023/04/26 01:34:33;;;;;;;7.13;2.20;;;3.20;99.90;;;;;;5054201;28;20033;-80
2023/04/26 01:37:00;;;;;;;8.02;1.95;;;3.30;99.90;;;;;;5055169;28;20106;-80
2023/04/26 01:39:26;;;;;;;5.45;2.53;;;3.20;99.90;;;;;;5054856;28;20045;-80
2023/04/26 01:41:51;;;;;;;7.75;2.45;;;3.20;99.90;;;;;;5053988;28;20393;-80
2023/04/26 01:44:17;;;;;;;7.05;2.47;;;3.30;99.90;;;;;;5053667;28;20514;-80
2023/04/26 01:46:43;;;;;;;2.72;1.63;;;3.20;99.90;;;;;;5053371;28;20044;-80
2023/04/26 01:49:09;;;;;;;9.35;2.55;;;3.20;99.90;;;;;;5054038;28;20123;-80
2023/04/26 01:51:35;;;;;;;5.55;2.60;;;3.30;99.90;;;;;;5055276;28;20116;-80
2023/04/26 01:54:01;;;;;;;7.25;2.92;;;3.30;99.90;;;;;;5054789;28;20523;-80
2023/04/26 01:56:26;;;;;;;7.30;2.78;;;3.30;99.90;;;;;;5065137;28;20044;-80
2023/04/26 01:58:54;;;;;;;3.42;1.90;;;3.30;99.90;;;;;;5055684;28;20099;-80
2023/04/26 02:01:20;;;;;;;4.75;2.20;;;3.30;99.90;;;;;;5053802;28;20541;-80
2023/04/26 02:03:45;;;;;;;6.68;2.67;;;3.30;99.90;;;;;;5053650;28;20120;-80
2023/04/26 02:06:11;;;;;;;3.50;1.92;;;3.40;99.90;;;;;;5053996;28;20044;-80
2023/04/26 02:08:37;;;;;;;6.75;2.33;;;3.30;99.90;;;;;;5053271;28;20084;-80
2023/04/26 02:11:02;;;;;;;6.32;2.10;;;3.30;99.90;;;;;;5053448;28;20535;-81
2023/04/26 02:13:29;;;;;;;8.93;2.38;;;3.30;99.90;;;;;;5053959;28;20073;-80
2023/04/26 02:15:55;;;;;;;5.70;1.77;;;3.30;99.90;;;;;;5053812;28;20037;-80
2023/04/26 02:18:21;;;;;;;5.82;2.15;;;3.20;99.90;;;;;;5052857;28;20045;-80
2023/04/26 02:20:47;;;;;;;5.68;2.13;;;3.20;99.90;;;;;;5054460;28;20400;-81
2023/04/26 02:23:12;;;;;;;6.07;2.00;;;3.30;99.90;;;;;;5052973;28;20094;-81
2023/04/26 02:25:38;;;;;;;7.55;2.17;;;3.30;99.90;;;;;;5052932;28;20056;-81
2023/04/26 02:28:04;;;;;;;9.73;2.50;;;3.20;99.90;;;;;;5054345;28;20064;-81
2023/04/26 02:30:30;;;;;;;3.55;1.80;;;3.20;99.90;;;;;;5052877;28;20123;-81
2023/04/26 02:32:56;;;;;;;4.60;1.95;;;3.30;99.90;;;;;;5052645;28;20585;-81
2023/04/26 02:35:23;;;;;;;5.65;2.05;;;3.10;99.90;;;;;;5053598;28;20134;-80
2023/04/26 02:37:51;;;;;;;5.28;2.30;;;3.10;99.90;;;;;;5052238;28;20204;-81
2023/04/26 02:40:17;;;;;;;5.72;1.88;;;3.20;99.90;;;;;;5052338;28;20082;-81
2023/04/26 02:42:42;;;;;;;3.50;1.77;;;3.00;99.90;;;;;;5053776;28;20382;-81
2023/04/26 02:45:08;;;;;;;5.28;1.90;;;3.50;99.90;;;;;;5052285;28;20067;-81
2023/04/26 02:47:35;;;;;;;9.15;2.00;;;3.00;99.90;;;;;;5052604;28;20404;-81
2023/04/26 02:50:06;;;;;;;6.65;2.03;;;3.20;99.90;;;;;;5053048;28;20048;-81
2023/04/26 02:52:32;;;;;;;9.70;2.10;;;2.90;99.90;;;;;;5052387;28;20106;-81
2023/04/26 02:54:57;;;;;;;5.18;1.75;;;3.20;99.90;;;;;;5052288;28;20041;-81
2023/04/26 02:57:23;;;;;;;5.50;2.08;;;2.90;99.90;;;;;;5066338;28;20036;-81
2023/04/26 02:59:49;;;;;;;4.93;1.80;;;3.10;99.90;;;;;;5053134;28;20040;-81
2023/04/26 03:02:15;;;;;;;4.88;1.90;;;3.40;99.90;;;;;;5051660;28;20040;-81
2023/04/26 03:04:41;;;;;;;5.05;2.17;;;3.00;99.90;;;;;;5053549;28;20428;-81
2023/04/26 03:07:06;;;;;;;8.38;1.73;;;3.10;99.90;;;;;;5053281;28;20048;-81
2023/04/26 03:09:33;;;;;;;4.75;1.75;;;3.20;99.90;;;;;;5053060;28;20257;-81
2023/04/26 03:11:58;;;;;;;3.75;1.63;;;3.00;99.90;;;;;;5051717;28;20108;-81
2023/04/26 03:14:24;;;;;;;4.63;1.80;;;3.30;99.90;;;;;;5051752;28;20068;-81
2023/04/26 03:16:50;;;;;;;6.97;1.60;;;3.40;99.90;;;;;;5051771;28;20041;-81
2023/04/26 03:19:15;;;;;;;6.18;1.70;;;3.40;99.90;;;;;;5052746;28;20041;-81
2023/04/26 03:21:41;;;;;;;5.28;2.00;;;3.20;99.90;;;;;;5053980;28;20115;-80
2023/04/26 03:24:06;;;;;;;4.10;1.98;;;3.40;99.90;;;;;;5052580;28;20099;-81
2023/04/26 03:26:32;;;;;;;4.80;2.00;;;3.50;99.90;;;;;;5054535;28;20048;-81
2023/04/26 03:28:58;;;;;;;8.63;2.03;;;3.60;99.90;;;;;;5052292;28;20125;-81
2023/04/26 03:31:23;;;;;;;6.43;1.88;;;4.00;99.90;;;;;;5052588;28;20036;-81
2023/04/26 03:33:49;;;;;;;5.88;2.05;;;3.60;99.90;;;;;;5053234;28;20059;-81
2023/04/26 03:36:16;;;;;;;3.95;1.80;;;3.70;99.90;;;;;;5051745;28;20037;-81
2023/04/26 03:38:41;;;;;;;2.60;1.70;;;3.20;99.90;;;;;;5051721;28;20116;-81
2023/04/26 03:41:07;;;;;;;9.15;1.83;;;4.20;99.90;;;;;;5051959;28;20077;-81
2023/04/26 03:43:33;;;;;;;4.00;1.88;;;3.70;99.90;;;;;;5052905;28;20047;-82
2023/04/26 03:45:59;;;;;;;3.33;1.60;;;3.70;99.90;;;;;;5051485;28;20077;-81
2023/04/26 03:48:26;;;;;;;4.80;1.90;;;3.70;99.90;;;;;;5050425;28;20037;-81
2023/04/26 03:50:52;;;;;;;6.13;2.03;;;3.70;99.90;;;;;;5051286;28;20263;-81
2023/04/26 03:53:17;;;;;;;4.00;1.77;;;3.70;99.90;;;;;;5051336;28;20048;-81
2023/04/26 03:55:43;;;;;;;5.38;1.90;;;3.70;99.90;;;;;;5056479;28;20702;-81
2023/04/26 03:58:08;;;;;;;4.00;2.00;;;3.60;99.90;;;;;;5059416;28;20036;-81
2023/04/26 04:00:36;;;;;;;3.33;1.55;;;3.60;99.90;;;;;;5052307;28;20029;-81
2023/04/26 04:03:02;;;;;;;6.45;1.67;;;3.60;99.90;;;;;;5051170;28;20120;-81
2023/04/26 04:05:27;;;;;;;5.35;1.70;;;3.70;99.90;;;;;;5052577;28;20124;-81
2023/04/26 04:07:53;;;;;;;3.80;1.60;;;3.50;99.90;;;;;;5051080;28;20041;-81
2023/04/26 04:10:19;;;;;;;8.70;2.17;;;3.40;99.90;;;;;;5052409;28;20083;-81
2023/04/26 04:12:44;;;;;;;2.75;1.65;;;3.40;99.90;;;;;;5051843;28;20037;-81
2023/04/26 04:15:10;;;;;;;3.50;1.90;;;3.40;99.90;;;;;;5050776;28;20055;-81
2023/04/26 04:17:36;;;;;;;4.93;1.70;;;3.40;99.90;;;;;;5050369;28;20051;-81
2023/04/26 04:20:06;;;;;;;5.93;1.85;;;3.40;99.90;;;;;;5050802;28;20044;-81
2023/04/26 04:22:31;;;;;;;5.53;1.75;;;3.40;99.90;;;;;;5050557;28;20041;-81
2023/04/26 04:24:58;;;;;;;3.88;1.80;;;3.40;99.90;;;;;;5050874;28;20037;-82
2023/04/26 04:27:24;;;;;;;4.78;2.00;;;3.40;99.90;;;;;;5050767;28;20045;-81
2023/04/26 04:29:50;;;;;;;5.00;2.00;;;3.40;99.90;;;;;;5050637;28;20043;-82
2023/04/26 04:32:16;;;;;;;6.78;2.08;;;3.50;99.90;;;;;;5052192;28;20046;-81
2023/04/26 04:34:43;;;;;;;2.70;1.80;;;3.50;99.90;;;;;;5050823;28;20079;-81
2023/04/26 04:37:08;;;;;;;4.65;2.03;;;3.50;99.90;;;;;;5050439;28;20496;-82
2023/04/26 04:39:34;;;;;;;4.55;1.75;;;3.70;99.90;;;;;;5050367;28;20049;-82
2023/04/26 04:42:00;;;;;;;4.78;1.73;;;3.60;99.90;;;;;;5050675;28;20090;-82
2023/04/26 04:44:25;;;;;;;3.55;1.85;;;4.10;99.90;;;;;;5051771;28;20049;-82
2023/04/26 04:46:51;;;;;;;4.65;1.83;;;3.90;99.90;;;;;;5050244;28;20073;-81
2023/04/26 04:49:17;;;;;;;4.53;1.92;;;3.60;99.90;;;;;;5050189;28;20519;-81
2023/04/26 04:51:43;;;;;;;4.72;2.00;;;3.60;99.90;;;;;;5034056;28;20073;-82
2023/04/26 04:54:13;;;;;;;3.28;1.90;;;3.60;99.90;;;;;;5052052;28;20044;-82
2023/04/26 04:56:39;;;;;;;4.40;1.80;;;3.60;99.90;;;;;;5062916;28;20062;-82
2023/04/26 04:59:05;;;;;;;4.88;1.98;;;3.60;99.90;;;;;;5053263;28;20049;-82
2023/04/26 05:01:32;;;;;;;6.53;1.63;;;3.50;99.90;;;;;;5054132;28;20195;-82
2023/04/26 05:03:58;;;;;;;7.68;1.95;;;4.10;99.90;;;;;;5053770;28;20037;-82
2023/04/26 05:06:24;;;;;;;4.25;2.00;;;3.50;99.90;;;;;;5054176;28;20132;-81
2023/04/26 05:08:50;;;;;;;6.00;1.90;;;4.10;99.90;;;;;;5055165;28;20218;-82
2023/04/26 05:11:15;;;;;;;6.72;2.45;;;3.60;99.90;;;;;;5053804;28;20041;-82
2023/04/26 05:13:41;;;;;;;6.05;2.20;;;3.60;99.90;;;;;;5053975;28;20045;-82
2023/04/26 05:16:06;;;;;;;3.20;1.85;;;3.60;99.90;;;;;;5055273;28;20522;-82
2023/04/26 05:18:32;;;;;;;4.45;1.85;;;3.90;99.90;;;;;;5053579;28;20079;-82
2023/04/26 05:20:57;;;;;;;7.57;2.38;;;3.60;99.90;;;;;;5054053;28;20037;-83
2023/04/26 05:23:23;;;;;;;5.57;1.92;;;4.00;99.90;;;;;;5053667;28;20044;-82
2023/04/26 05:25:49;;;;;;;7.50;1.80;;;3.80;99.90;;;;;;5054386;28;20041;-82
2023/04/26 05:28:15;;;;;;;4.13;1.90;;;3.70;99.90;;;;;;5054854;28;20048;-82
2023/04/26 05:30:41;;;;;;;3.03;1.70;;;3.60;99.90;;;;;;5053872;28;20037;-82
2023/04/26 05:33:07;;;;;;;6.90;2.30;;;3.80;99.90;;;;;;5055199;28;20048;-82
2023/04/26 05:35:32;;;;;;;5.53;2.00;;;4.40;99.90;;;;;;5055005;28;20041;-82
2023/04/26 05:37:58;;;;;;;5.68;2.38;;;4.50;99.90;;;;;;5053866;28;20036;-82
2023/04/26 05:40:25;;;;;;;5.50;2.25;;;4.20;99.90;;;;;;5053962;28;20069;-82
2023/04/26 05:42:50;;;;;;;5.28;1.92;;;4.50;99.90;;;;;;5053283;28;20055;-82
2023/04/26 05:45:16;;;;;;;5.03;2.10;;;4.60;99.90;;;;;;5053737;28;20044;-82
2023/04/26 05:47:41;;;;;;;6.07;2.00;;;4.70;99.90;;;;;;5053408;28;20098;-83
2023/04/26 05:50:07;;;;;;;3.30;1.80;;;4.90;99.90;;;;;;5056514;28;20041;-82
2023/04/26 05:52:33;;;;;;;8.18;2.22;;;5.00;99.90;;;;;;5055383;28;20033;-82
2023/04/26 05:55:02;;;;;;;3.58;2.05;;;5.00;99.90;;;;;;5054066;28;20041;-82
2023/04/26 05:57:27;;;;;;;5.32;2.17;;;5.10;99.90;;;;;;5069749;28;20481;-83
2023/04/26 05:59:53;;;;;;;5.07;2.63;;;5.10;99.90;;;;;;5054677;28;20037;-82
2023/04/26 06:02:18;;;;;;;5.28;1.98;;;5.10;99.90;;;;;;5055902;28;20044;-83
2023/04/26 06:04:45;;;;;;;4.40;1.92;;;5.10;99.90;;;;;;5057047;28;20095;-84
2023/04/26 06:07:10;;;;;;;4.03;2.00;;;5.10;99.90;;;;;;5056151;28;20059;-83
2023/04/26 06:09:36;;;;;;;4.80;2.00;;;5.20;99.90;;;;;;5053889;28;20045;-83
2023/04/26 06:12:02;;;;;;;7.05;2.75;;;5.20;99.90;;;;;;5055114;28;20044;-83
2023/04/26 06:14:28;;;;;;;5.15;2.00;;;5.30;99.90;;;;;;5053670;28;20044;-84
2023/04/26 06:16:55;;;;;;;6.22;1.88;;;5.30;99.90;;;;;;5054620;28;20041;-82
2023/04/26 06:19:20;;;;;;;6.70;2.53;;;5.40;99.90;;;;;;5053827;28;20043;-83
2023/04/26 06:21:47;;;;;;;3.63;1.98;;;5.50;99.90;;;;;;5053331;28;20044;-83
2023/04/26 06:24:13;;;;;;;4.80;1.80;;;5.60;99.90;;;;;;5053130;28;20148;-84
2023/04/26 06:26:39;;;;;;;7.03;2.10;;;5.80;99.90;;;;;;5053010;28;20041;-84
2023/04/26 06:29:04;;;;;;;4.15;1.65;;;5.80;99.90;;;;;;5053301;28;20052;-84
2023/04/26 06:31:30;;;;;;;7.38;1.95;;;5.80;99.90;;;;;;5055163;28;20381;-83
2023/04/26 06:33:56;;;;;;;6.78;2.15;;;5.90;99.90;;;;;;5053756;28;20319;-83
2023/04/26 06:36:21;;;;;;;5.18;1.67;;;5.90;99.90;;;;;;5054127;28;20048;-84
2023/04/26 06:38:47;;;;;;;4.82;1.90;;;5.80;99.90;;;;;;5053993;28;20493;-82
2023/04/26 06:41:13;;;;;;;4.28;2.00;;;5.70;99.90;;;;;;5051970;28;20037;-84
2023/04/26 06:43:39;;;;;;;3.83;1.77;;;5.60;99.90;;;;;;5051582;28;20433;-84
2023/04/26 06:46:04;;;;;;;7.07;2.05;;;5.70;99.90;;;;;;5052930;28;20045;-85
2023/04/26 06:48:30;;;;;;;8.45;2.20;;;5.80;99.90;;;;;;5053629;28;20138;-84
2023/04/26 06:50:55;;;;;;;6.95;2.10;;;6.00;99.90;;;;;;5052115;28;20389;-84
2023/04/26 06:53:21;;;;;;;4.80;2.00;;;6.30;99.90;;;;;;5052480;28;20073;-85
2023/04/26 06:55:47;;;;;;;6.25;2.40;;;6.50;99.90;;;;;;5057291;28;20051;-84
2023/04/26 06:58:12;;;;;;;5.07;2.40;;;6.70;99.90;;;;;;5061801;28;20072;-84
2023/04/26 07:00:38;;;;;;;6.07;2.30;;;6.80;99.90;;;;;;5052154;28;20033;-84
2023/04/26 07:03:03;;;;;;;9.75;2.38;;;6.90;99.90;;;;;;5053025;28;20083;-83
2023/04/26 07:05:29;;;;;;;6.63;2.30;;;7.00;99.90;;;;;;5052515;28;20045;-85
2023/04/26 07:07:55;;;;;;;5.60;2.30;;;7.10;99.90;;;;;;5035020;28;20504;-83
2023/04/26 07:10:20;;;;;;;4.95;2.10;;;7.10;99.90;;;;;;5065273;28;20492;-85
2023/04/26 07:12:46;;;;;;;6.70;2.10;;;7.30;99.90;;;;;;5048855;28;20059;-85
2023/04/26 07:15:11;;;;;;;7.63;2.50;;;7.40;99.90;;;;;;5046264;28;20056;-86
2023/04/26 07:17:37;;;;;;;5.90;2.45;;;7.60;99.90;;;;;;5037128;28;20033;-86
2023/04/26 07:20:03;;;;;;;8.05;2.63;;;7.60;99.90;;;;;;5051607;28;20037;-85
2023/04/26 07:22:29;;;;;;;8.25;2.72;;;7.50;99.90;;;;;;5049265;28;20134;-84
2023/04/26 07:24:54;;;;;;;6.07;2.10;;;7.50;99.90;;;;;;5063520;28;20112;-85
2023/04/26 07:27:20;;;;;;;6.95;2.30;;;7.50;99.90;;;;;;5051220;28;20543;-85
2023/04/26 07:29:46;;;;;;;5.25;2.30;;;7.40;99.90;;;;;;5056848;28;20111;-86
2023/04/26 07:32:12;;;;;;;6.18;2.00;;;7.50;99.90;;;;;;5071339;28;20397;-86
2023/04/26 07:34:38;;;;;;;7.40;2.42;;;7.50;99.90;;;;;;5036728;28;20039;-85
2023/04/26 07:37:04;;;;;;;6.95;2.45;;;7.50;99.90;;;;;;5050424;28;20136;-86
2023/04/26 07:39:29;;;;;;;6.75;2.35;;;7.60;99.90;;;;;;5050341;28;20048;-85
2023/04/26 07:41:55;;;;;;;4.20;1.83;;;7.80;99.90;;;;;;5063439;28;20043;-85
2023/04/26 07:44:21;;;;;;;4.82;2.40;;;8.00;99.90;;;;;;5050786;28;20041;-86
2023/04/26 07:46:46;;;;;;;6.38;2.45;;;8.10;99.90;;;;;;5050848;28;20112;-86
2023/04/26 07:49:12;;;;;;;7.10;2.22;;;8.20;99.90;;;;;;5046144;28;20091;-86
2023/04/26 07:51:38;;;;;;;6.60;2.33;;;8.30;99.90;;;;;;5056109;28;20090;-86
2023/04/26 07:54:04;;;;;;;6.97;1.85;;;8.30;99.90;;;;;;5062033;28;20136;-86
2023/04/26 07:56:29;;;;;;;3.70;1.88;;;8.30;99.90;;;;;;5045609;28;20131;-85
2023/04/26 07:58:55;;;;;;;5.30;1.80;;;8.30;99.90;;;;;;5036600;28;20036;-84
2023/04/26 08:01:21;;;;;;;5.63;2.30;;;8.50;99.90;;;;;;5052116;28;20083;-86
2023/04/26 08:03:47;;;;;;;5.82;1.98;;;8.70;99.90;;;;;;5033916;28;20064;-85
2023/04/26 08:06:13;;;;;;;5.30;1.85;;;8.90;99.90;;;;;;5050501;28;20056;-86
2023/04/26 08:08:43;;;;;;;5.20;1.67;;;9.00;99.90;;;;;;5033660;28;20048;-84
2023/04/26 08:11:09;;;;;;;7.72;1.88;;;9.00;99.90;;;;;;5040653;28;20063;-86
2023/04/26 08:13:35;;;;;;;7.85;2.45;;;8.90;99.90;;;;;;5053997;28;20400;-84
2023/04/26 08:16:00;;;;;;;9.32;2.20;;;8.70;99.90;;;;;;5072522;28;20110;-82
2023/04/26 08:18:26;;;;;;;7.45;2.33;;;8.50;99.90;;;;;;5070678;28;20052;-86
2023/04/26 08:20:54;;;;;;;6.40;1.83;;;8.30;99.90;;;;;;5054347;28;20056;-86
2023/04/26 08:23:20;;;;;;;6.95;2.08;;;8.10;99.90;;;;;;5050461;28;20036;-85
2023/04/26 08:25:46;;;;;;;9.50;2.22;;;7.90;99.90;;;;;;5048338;28;20097;-85
2023/04/26 08:28:13;;;;;;;6.97;2.28;;;7.90;99.90;;;;;;5070197;28;20052;-87
2023/04/26 08:30:39;;;;;;;8.00;2.10;;;8.00;99.90;;;;;;5053616;28;20072;-86
2023/04/26 08:33:05;;;;;;;8.05;1.98;;;8.00;99.90;;;;;;5034828;28;20107;-87
2023/04/26 08:35:31;;;;;;;9.50;2.40;;;8.00;99.90;;;;;;5065420;28;20044;-85
2023/04/26 08:37:57;;;;;;;4.68;1.95;;;8.10;99.90;;;;;;5056480;28;20037;-85
2023/04/26 08:40:24;;;;;;;6.30;2.00;;;8.00;99.90;;;;;;5037690;28;20037;-87
2023/04/26 08:42:51;;;;;;;5.70;1.85;;;7.80;99.90;;;;;;5037145;28;20045;-85
2023/04/26 08:45:17;;;;;;;6.40;2.20;;;7.60;99.90;;;;;;5044779;28;20052;-87
2023/04/26 08:47:46;;;;;;;4.97;1.83;;;7.60;99.90;;;;;;5043217;28;20415;-87
2023/04/26 08:50:13;;;;;;;7.43;2.50;;;7.40;99.90;;;;;;5043002;28;20052;-86
2023/04/26 08:52:40;;;;;;;4.55;2.30;;;7.40;99.90;;;;;;5073968;28;20166;-85
2023/04/26 08:55:11;;;;;;;8.75;2.35;;;7.40;99.90;;;;;;5055513;28;20136;-85
2023/04/26 08:57:39;;;;;;;6.07;2.05;;;7.40;99.90;;;;;;5049749;28;20037;-86
2023/04/26 09:00:12;;;;;;;10.18;2.35;;;7.50;99.90;;;;;;5050153;28;20036;-87
2023/04/26 09:02:40;;;;;;;6.97;2.53;;;7.50;99.90;;;;;;5050605;28;20163;-85
2023/04/26 09:05:06;;;;;;;6.55;2.45;;;7.60;99.90;;;;;;5036692;28;20075;-86
2023/04/26 09:07:45;;;;;;;7.85;2.85;;;7.60;99.90;;;;;;5036502;28;20048;-84
2023/04/26 09:10:13;;;;;;;8.65;2.60;;;7.60;99.90;;;;;;5053856;28;20528;-83
2023/04/26 09:12:39;;;;;;;11.18;2.70;;;7.50;99.90;;;;;;5053546;28;20562;-84
2023/04/26 09:15:09;;;;;;;6.50;2.50;;;7.50;99.90;;;;;;5056115;28;20041;-81
2023/04/26 09:17:40;;;;;;;5.53;2.13;;;7.40;99.90;;;;;;5053934;28;20041;-85
2023/04/26 09:20:22;;;;;;;8.85;2.58;;;7.30;99.90;;;;;;5055026;28;20435;-85
2023/04/26 09:22:50;;;;;;;4.13;2.30;;;7.30;99.90;;;;;;5053768;28;20037;-82
2023/04/26 09:25:18;;;;;;;5.93;2.25;;;7.30;99.90;;;;;;5054639;28;20044;-84
2023/04/26 09:27:45;;;;;;;11.23;2.17;;;7.30;99.90;;;;;;5036948;28;20090;-84
2023/04/26 09:30:12;;;;;;;5.53;1.88;;;7.20;99.90;;;;;;5053281;28;20064;-84
2023/04/26 09:32:59;;;;;;;6.07;1.73;;;7.20;99.90;;;;;;5052805;28;20086;-85
2023/04/26 09:35:34;;;;;;;5.05;1.70;;;7.20;99.90;;;;;;5054248;28;20052;-85
2023/04/26 09:38:15;;;;;;;6.78;2.45;;;7.30;99.90;;;;;;5052180;28;20045;-84
2023/04/26 09:40:42;;;;;;;7.03;2.42;;;7.50;99.90;;;;;;5052869;28;20036;-84
2023/04/26 09:43:15;;;;;;;4.05;1.88;;;7.70;99.90;;;;;;5052398;28;20041;-84
2023/04/26 09:45:52;;;;;;;6.35;2.03;;;7.80;99.90;;;;;;5052224;28;20052;-83
2023/04/26 09:48:25;;;;;;;6.05;2.25;;;7.90;99.90;;;;;;5053052;28;20493;-84
2023/04/26 09:50:56;;;;;;;6.35;2.08;;;8.10;99.90;;;;;;5053554;28;20103;-83
2023/04/26 09:53:30;;;;;;;5.78;2.25;;;8.30;99.90;;;;;;5054015;28;20122;-82
2023/04/26 09:56:04;;;;;;;8.63;2.30;;;8.50;99.90;;;;;;5063385;28;20043;-83
2023/04/26 09:58:30;;;;;;;;;;;8.70;99.90;;;;;;5061561;28;20135;-82
2023/04/26 10:00:57;;;;;;;7.70;2.55;;;8.70;99.90;;;;;;5055872;28;19955;-78
2023/04/26 10:03:23;;;;;;;9.10;2.67;;;8.80;99.90;;;;;;5056818;28;20413;-81
2023/04/26 10:05:48;;;;;;;8.10;2.60;;;8.70;99.90;;;;;;5055658;28;20045;-81
2023/04/26 10:08:15;;;;;;;8.43;2.60;;;8.90;99.90;;;;;;5056316;28;20037;-81
2023/04/26 10:10:42;;;;;;;4.25;2.50;;;9.00;99.90;;;;;;5054999;28;20044;-80
2023/04/26 10:13:09;;;;;;;5.13;1.90;;;9.30;99.90;;;;;;5054907;28;20041;-81
2023/04/26 10:15:36;;;;;;;8.25;2.10;;;9.40;99.90;;;;;;5056680;28;20106;-80
2023/04/26 10:18:02;;;;;;;5.70;2.10;;;9.10;99.90;;;;;;5054987;28;20056;-78
2023/04/26 10:20:28;;;;;;;6.10;2.25;;;9.00;99.90;;;;;;5055186;28;20032;-80
2023/04/26 10:23:01;;;;;;;7.15;2.40;;;8.70;99.90;;;;;;5054242;28;20048;-79
2023/04/26 10:25:38;;;;;;;6.55;2.60;;;8.50;99.90;;;;;;5053139;28;20048;-80
2023/04/26 10:28:04;;;;;;;4.63;1.67;;;8.30;99.90;;;;;;5052735;28;20055;-80
2023/04/26 10:30:31;;;;;;;5.32;1.92;;;8.30;99.90;;;;;;5052880;28;20045;-79
2023/04/26 10:32:59;;;;;;;5.13;1.98;;;8.50;99.90;;;;;;5053627;28;20044;-80
2023/04/26 10:35:27;;;;;;;5.25;1.90;;;8.70;99.90;;;;;;5053451;28;20053;-80
2023/04/26 10:37:59;;;;;;;4.95;1.88;;;8.80;99.90;;;;;;5051895;28;20116;-79
2023/04/26 10:40:27;;;;;;;5.65;2.10;;;8.90;99.90;;;;;;5053396;28;20084;-79
2023/04/26 10:43:17;;;;;;;4.68;2.00;;;9.00;99.90;;;;;;5052445;28;20041;-79
2023/04/26 10:45:46;;;;;;;7.82;2.17;;;9.20;99.90;;;;;;5052179;28;20052;-79
2023/04/26 10:48:27;;;;;;;4.60;1.63;;;9.40;99.90;;;;;;5051758;28;20435;-79
2023/04/26 10:51:04;;;;;;;5.07;1.90;;;9.90;99.90;;;;;;5051467;28;20088;-79
2023/04/26 10:53:31;;;;;;;4.95;1.65;;;9.90;99.90;;;;;;5051521;28;20053;-78
2023/04/26 10:55:57;;;;;;;3.80;1.58;;;9.50;99.90;;;;;;5058187;28;20043;-78
2023/04/26 10:58:30;;;;;;;6.47;1.80;;;9.10;99.90;;;;;;5058234;28;20041;-78
2023/04/26 11:01:19;;;;;;;4.43;1.67;;;8.70;99.90;;;;;;5052803;28;20051;-78
2023/04/26 11:03:57;;;;;;;6.45;1.85;;;8.40;99.90;;;;;;5052839;28;20049;-79
2023/04/26 11:06:24;;;;;;;6.13;1.70;;;8.30;99.90;;;;;;5051506;28;20099;-78
2023/04/26 11:08:50;;;;;;;3.72;1.80;;;8.10;99.90;;;;;;5051123;28;20127;-78
2023/04/26 11:11:18;;;;;;;6.95;1.70;;;8.10;99.90;;;;;;5052153;28;20116;-79
2023/04/26 11:13:45;;;;;;;8.52;1.67;;;8.10;99.90;;;;;;5050719;28;20120;-79
2023/04/26 11:16:13;;;;;;;11.63;2.03;;;8.20;99.90;;;;;;5050754;28;20045;-78
2023/04/26 11:18:43;;;;;;;7.72;2.00;;;8.30;99.90;;;;;;5050421;28;20092;-79
2023/04/26 11:21:11;;;;;;;4.18;1.45;;;8.30;99.90;;;;;;5050472;28;20560;-79
2023/04/26 11:23:36;;;;;;;4.88;1.90;;;8.40;99.90;;;;;;5050420;28;20076;-79
2023/04/26 11:26:07;;;;;;;6.13;1.63;;;8.50;99.90;;;;;;5050228;28;20072;-79
2023/04/26 11:28:34;;;;;;;4.32;1.58;;;8.60;99.90;;;;;;5050150;28;20041;-79
2023/04/26 11:31:00;;;;;;;4.53;1.65;;;8.70;99.90;;;;;;5050167;28;20072;-78
2023/04/26 11:33:26;;;;;;;6.05;1.70;;;8.90;99.90;;;;;;5050419;28;20041;-79
2023/04/26 11:35:53;;;;;;;6.75;1.80;;;9.00;99.90;;;;;;5051437;28;20045;-79
2023/04/26 11:38:27;;;;;;;8.50;2.10;;;9.10;99.90;;;;;;5049984;28;20044;-78
2023/04/26 11:40:58;;;;;;;4.30;1.55;;;9.30;99.90;;;;;;5050141;28;20055;-78
2023/04/26 11:43:35;;;;;;;4.70;1.50;;;9.30;99.90;;;;;;5050330;28;20077;-77
2023/04/26 11:46:00;;;;;;;4.03;1.55;;;9.30;99.90;;;;;;5050233;28;20045;-78
2023/04/26 11:48:30;;;;;;;6.93;2.08;;;9.30;99.90;;;;;;5050120;28;20550;-78
2023/04/26 11:50:58;;;;;;;5.38;1.80;;;9.20;99.90;;;;;;5050079;28;20044;-78
2023/04/26 11:53:23;;;;;;;3.88;1.73;;;9.20;99.90;;;;;;5049675;28;20625;-78
2023/04/26 11:55:50;;;;;;;5.38;2.00;;;9.30;99.90;;;;;;5056420;28;20037;-78
2023/04/26 11:58:16;;;;;;;5.22;1.90;;;9.20;99.90;;;;;;5057263;28;20067;-78
2023/04/26 12:01:03;;;;;;;4.97;2.13;;;9.20;99.90;;;;;;5049974;28;20440;-78
2023/04/26 12:03:36;;;;;;;3.67;1.40;;;9.30;99.90;;;;;;5049870;28;20055;-78
2023/04/26 12:06:05;;;;;;;3.67;1.20;;;9.30;99.90;;;;;;5051109;28;20412;-78
2023/04/26 12:08:32;;;;;;;3.63;1.38;;;9.40;99.90;;;;;;5049437;28;20059;-78
2023/04/26 12:11:01;;;;;;;5.47;1.30;;;9.70;99.90;;;;;;5050104;28;20071;-78
2023/04/26 12:13:28;;;;;;;2.95;1.08;;;9.80;99.90;;;;;;5050138;28;20475;-78
2023/04/26 12:15:54;;;;;;;3.95;1.50;;;9.90;99.90;;;;;;5049556;28;20049;-78
2023/04/26 12:18:22;;;;;;;3.75;1.67;;;10.00;99.90;;;;;;5049674;28;20456;-78
2023/04/26 12:20:48;;;;;;;5.32;1.35;;;10.00;99.90;;;;;;5050257;28;20052;-78
2023/04/26 12:23:17;;;;;;;5.43;1.48;;;9.90;99.90;;;;;;5049952;28;20077;-79
2023/04/26 12:25:54;;;;;;;5.18;1.45;;;9.80;99.90;;;;;;5050357;28;20048;-79
2023/04/26 12:28:21;;;;;;;4.78;1.58;;;9.60;99.90;;;;;;5049955;28;20504;-79
2023/04/26 12:30:47;;;;;;;6.80;1.60;;;9.40;99.90;;;;;;5051535;28;20087;-79
2023/04/26 12:33:12;;;;;;;4.93;1.70;;;9.30;99.90;;;;;;5052066;28;20431;-79
2023/04/26 12:35:38;;;;;;;5.57;1.60;;;9.20;99.90;;;;;;5050663;28;20118;-78
2023/04/26 12:38:04;;;;;;;4.93;1.10;;;9.10;99.90;;;;;;5049663;28;20492;-79
2023/04/26 12:40:30;;;;;;;2.72;1.23;;;8.90;99.90;;;;;;5051334;28;20481;-79
2023/04/26 12:42:56;;;;;;;3.72;1.20;;;8.80;99.90;;;;;;5050361;28;20052;-79
2023/04/26 12:45:24;;;;;;;5.18;1.52;;;8.90;99.90;;;;;;5052022;28;20049;-79
2023/04/26 12:47:50;;;;;;;3.15;1.20;;;8.80;99.90;;;;;;5050091;28;20556;-79
2023/04/26 12:50:16;;;;;;;5.50;1.60;;;8.70;99.90;;;;;;5051938;28;20116;-79
2023/04/26 12:52:42;;;;;;;6.20;1.20;;;8.60;99.90;;;;;;5050750;28;20036;-79
2023/04/26 12:55:10;;;;;;;4.68;1.50;;;8.60;99.90;;;;;;5050593;28;20044;-79
2023/04/26 12:57:37;;;;;;;4.50;1.30;;;8.60;99.90;;;;;;5063868;28;20033;-79